createdAt,value
2022-10-26T00:00:03.649Z,11.08
2022-10-26T00:01:03.673Z,11.11
2022-10-26T00:02:03.856Z,11.17
2022-10-26T00:03:03.635Z,11.11
2022-10-26T00:04:03.601Z,11.07
2022-10-26T00:05:03.602Z,11.12
2022-10-26T00:06:03.575Z,11.00
2022-10-26T00:07:03.601Z,11.04
2022-10-26T00:08:03.569Z,11.04
2022-10-26T00:09:03.552Z,11.11
2022-10-26T00:10:03.531Z,11.05
2022-10-26T00:11:03.525Z,11.07
2022-10-26T00:12:03.527Z,11.04
2022-10-26T00:13:03.498Z,11.14
2022-10-26T00:14:03.491Z,11.08
2022-10-26T00:15:03.477Z,11.11
2022-10-26T00:16:03.467Z,11.08
2022-10-26T00:17:03.454Z,10.99
2022-10-26T00:18:03.458Z,11.02
2022-10-26T00:19:03.435Z,11.07
2022-10-26T00:20:03.427Z,11.00
2022-10-26T00:21:03.407Z,10.97
2022-10-26T00:22:03.395Z,11.04
2022-10-26T00:23:03.424Z,11.08
2022-10-26T00:24:03.387Z,10.97
2022-10-26T00:25:03.363Z,11.07
2022-10-26T00:26:03.353Z,10.96
2022-10-26T00:27:03.349Z,11.08
2022-10-26T00:28:03.353Z,11.04
2022-10-26T00:29:03.338Z,11.04
2022-10-26T00:30:03.309Z,10.94
2022-10-26T00:31:03.303Z,10.99
2022-10-26T00:32:03.303Z,10.99
2022-10-26T00:33:03.279Z,11.00
2022-10-26T00:34:03.282Z,10.92
2022-10-26T00:35:10.734Z,11.00
2022-10-26T00:36:04.245Z,10.89
2022-10-26T00:37:03.236Z,10.94
2022-10-26T00:38:03.237Z,10.89
2022-10-26T00:39:03.246Z,10.96
2022-10-26T00:40:03.207Z,10.94
2022-10-26T00:41:03.224Z,10.99
2022-10-26T00:42:03.177Z,11.00
2022-10-26T00:43:03.169Z,11.00
2022-10-26T00:44:03.161Z,10.99
2022-10-26T00:45:03.146Z,10.94
2022-10-26T00:46:03.139Z,10.96
2022-10-26T00:47:03.128Z,11.00
2022-10-26T00:48:03.107Z,10.96
2022-10-26T00:49:03.131Z,10.92
2022-10-26T00:50:03.117Z,10.97
2022-10-26T00:51:03.097Z,11.00
2022-10-26T00:52:03.068Z,10.87
2022-10-26T00:53:03.060Z,10.89
2022-10-26T00:54:03.052Z,11.00
2022-10-26T00:55:03.077Z,10.87
2022-10-26T00:56:03.035Z,10.84
2022-10-26T00:57:03.009Z,10.94
2022-10-26T00:58:02.997Z,11.04
2022-10-26T00:59:02.996Z,10.87
2022-10-26T01:00:02.978Z,10.97
2022-10-26T01:01:03.030Z,10.94
2022-10-26T01:02:02.970Z,10.89
2022-10-26T01:03:02.950Z,10.93
2022-10-26T01:04:03.050Z,10.90
2022-10-26T01:05:02.972Z,10.92
2022-10-26T01:06:02.936Z,11.00
2022-10-26T01:07:02.902Z,10.93
2022-10-26T01:08:02.887Z,10.90
2022-10-26T01:09:02.881Z,10.93
2022-10-26T01:10:02.871Z,11.02
2022-10-26T01:11:02.875Z,10.92
2022-10-26T01:12:02.882Z,11.00
2022-10-26T01:13:02.835Z,11.00
2022-10-26T01:14:02.821Z,11.02
2022-10-26T01:15:02.818Z,11.08
2022-10-26T01:16:02.792Z,10.97
2022-10-26T01:18:02.790Z,10.97
2022-10-26T01:19:02.773Z,10.97
2022-10-26T01:20:02.752Z,10.99
2022-10-26T01:21:02.749Z,11.02
2022-10-26T01:22:02.732Z,10.87
2022-10-26T01:23:02.719Z,11.05
2022-10-26T01:24:02.720Z,10.99
2022-10-26T01:25:02.696Z,10.97
2022-10-26T01:26:02.699Z,11.11
2022-10-26T01:27:02.713Z,10.99
2022-10-26T01:28:02.673Z,11.02
2022-10-26T01:29:02.654Z,11.07
2022-10-26T01:30:02.656Z,10.97
2022-10-26T01:31:02.631Z,11.04
2022-10-26T01:32:02.630Z,11.05
2022-10-26T01:33:02.616Z,10.99
2022-10-26T01:34:02.603Z,11.11
2022-10-26T01:35:02.590Z,11.11
2022-10-26T01:36:02.573Z,11.11
2022-10-26T01:37:02.585Z,11.05
2022-10-26T01:38:02.568Z,11.10
2022-10-26T01:39:02.543Z,11.11
2022-10-26T01:40:02.528Z,11.12
2022-10-26T01:41:02.546Z,11.15
2022-10-26T01:42:02.508Z,11.10
2022-10-26T01:43:02.532Z,11.12
2022-10-26T01:44:02.481Z,11.19
2022-10-26T01:45:02.478Z,11.15
2022-10-26T01:46:02.479Z,11.10
2022-10-26T01:47:02.447Z,11.10
2022-10-26T01:48:02.444Z,11.19
2022-10-26T01:49:02.462Z,11.17
2022-10-26T01:50:02.431Z,11.17
2022-10-26T01:51:02.406Z,11.14
2022-10-26T01:52:02.397Z,11.22
2022-10-26T01:53:02.383Z,11.19
2022-10-26T01:54:02.376Z,11.14
2022-10-26T01:55:02.388Z,11.14
2022-10-26T01:56:02.349Z,11.29
2022-10-26T01:57:02.340Z,11.18
2022-10-26T01:58:02.339Z,11.19
2022-10-26T01:59:02.335Z,11.18
2022-10-26T02:00:02.323Z,11.19
2022-10-26T02:01:02.292Z,11.36
2022-10-26T02:02:02.285Z,11.15
2022-10-26T02:03:02.270Z,11.23
2022-10-26T02:04:02.380Z,11.15
2022-10-26T02:05:02.249Z,11.22
2022-10-26T02:06:02.273Z,11.25
2022-10-26T02:07:02.241Z,11.22
2022-10-26T02:08:02.216Z,11.18
2022-10-26T02:09:02.218Z,11.17
2022-10-26T02:10:02.194Z,11.23
2022-10-26T02:11:02.180Z,11.17
2022-10-26T02:12:02.185Z,11.14
2022-10-26T02:13:02.166Z,11.11
2022-10-26T02:14:02.159Z,11.15
2022-10-26T02:15:02.168Z,11.11
2022-10-26T02:16:02.134Z,11.12
2022-10-26T02:17:02.125Z,11.17
2022-10-26T02:18:02.111Z,11.15
2022-10-26T02:19:02.111Z,11.10
2022-10-26T02:20:02.092Z,11.08
2022-10-26T02:21:02.081Z,11.05
2022-10-26T02:22:02.065Z,11.12
2022-10-26T02:23:02.051Z,11.07
2022-10-26T02:24:02.113Z,11.04
2022-10-26T02:25:02.041Z,11.08
2022-10-26T02:26:02.031Z,11.07
2022-10-26T02:27:02.005Z,11.11
2022-10-26T02:28:01.990Z,11.05
2022-10-26T02:29:01.977Z,11.11
2022-10-26T02:30:01.995Z,11.04
2022-10-26T02:31:01.979Z,11.05
2022-10-26T02:32:01.954Z,11.07
2022-10-26T02:33:01.934Z,11.08
2022-10-26T02:34:01.928Z,11.11
2022-10-26T02:35:01.914Z,10.96
2022-10-26T02:36:01.912Z,11.10
2022-10-26T02:37:01.906Z,11.08
2022-10-26T02:38:01.887Z,10.99
2022-10-26T02:39:01.871Z,11.02
2022-10-26T02:40:01.879Z,10.97
2022-10-26T02:41:01.850Z,10.99
2022-10-26T02:42:01.878Z,11.00
2022-10-26T02:43:01.848Z,10.96
2022-10-26T02:44:01.816Z,11.05
2022-10-26T02:45:01.803Z,10.99
2022-10-26T02:46:01.804Z,10.99
2022-10-26T02:47:01.805Z,10.97
2022-10-26T02:48:01.799Z,11.04
2022-10-26T02:49:01.757Z,10.99
2022-10-26T02:50:01.767Z,10.99
2022-10-26T02:51:01.741Z,10.92
2022-10-26T02:52:01.729Z,11.02
2022-10-26T02:53:01.807Z,10.90
2022-10-26T02:54:01.705Z,10.96
2022-10-26T02:55:01.693Z,10.93
2022-10-26T02:56:01.717Z,11.07
2022-10-26T02:57:01.672Z,10.89
2022-10-26T02:58:01.683Z,10.97
2022-10-26T02:59:01.643Z,11.02
2022-10-26T03:00:01.710Z,10.96
2022-10-26T03:01:01.629Z,10.97
2022-10-26T03:02:01.622Z,10.93
2022-10-26T03:03:01.662Z,11.02
2022-10-26T03:04:01.751Z,10.96
2022-10-26T03:05:01.592Z,10.92
2022-10-26T03:06:01.572Z,10.93
2022-10-26T03:07:01.562Z,10.92
2022-10-26T03:08:01.558Z,10.94
2022-10-26T03:09:01.579Z,10.94
2022-10-26T03:10:01.539Z,10.87
2022-10-26T03:11:01.511Z,10.90
2022-10-26T03:12:01.507Z,10.96
2022-10-26T03:13:01.496Z,10.96
2022-10-26T03:14:01.485Z,10.94
2022-10-26T03:15:01.483Z,10.97
2022-10-26T03:16:01.473Z,10.94
2022-10-26T03:17:01.449Z,10.94
2022-10-26T03:18:01.436Z,10.99
2022-10-26T03:19:01.451Z,10.90
2022-10-26T03:20:01.429Z,10.96
2022-10-26T03:21:01.405Z,10.86
2022-10-26T03:22:01.405Z,11.10
2022-10-26T03:23:01.379Z,11.08
2022-10-26T03:24:01.370Z,10.97
2022-10-26T03:25:01.412Z,11.02
2022-10-26T03:26:01.349Z,11.11
2022-10-26T03:27:02.417Z,11.04
2022-10-26T03:28:01.375Z,11.07
2022-10-26T03:29:01.323Z,11.04
2022-10-26T03:30:01.322Z,11.08
2022-10-26T03:31:01.297Z,11.07
2022-10-26T03:32:01.289Z,11.05
2022-10-26T03:33:01.277Z,11.02
2022-10-26T03:34:01.258Z,11.10
2022-10-26T03:35:01.284Z,11.10
2022-10-26T03:36:01.238Z,11.07
2022-10-26T03:37:01.222Z,11.10
2022-10-26T03:38:01.233Z,11.11
2022-10-26T03:39:01.210Z,11.08
2022-10-26T03:40:01.205Z,11.08
2022-10-26T03:41:01.188Z,11.10
2022-10-26T03:42:01.173Z,11.12
2022-10-26T03:43:01.161Z,11.12
2022-10-26T03:44:01.154Z,11.15
2022-10-26T03:45:01.153Z,11.18
2022-10-26T03:46:01.139Z,11.11
2022-10-26T03:47:01.121Z,11.14
2022-10-26T03:48:01.112Z,11.08
2022-10-26T03:49:01.100Z,11.15
2022-10-26T03:50:01.199Z,11.22
2022-10-26T03:51:01.099Z,11.22
2022-10-26T03:52:01.067Z,11.19
2022-10-26T03:53:01.062Z,11.19
2022-10-26T03:54:01.036Z,11.17
2022-10-26T03:55:01.025Z,11.23
2022-10-26T03:56:01.018Z,11.18
2022-10-26T03:57:01.003Z,11.22
2022-10-26T03:58:01.004Z,11.19
2022-10-26T03:59:00.998Z,11.17
2022-10-26T04:00:00.972Z,11.19
2022-10-26T04:01:00.959Z,11.27
2022-10-26T04:02:00.994Z,11.26
2022-10-26T04:03:00.936Z,11.32
2022-10-26T04:04:00.994Z,11.30
2022-10-26T04:05:00.923Z,11.30
2022-10-26T04:06:00.921Z,11.36
2022-10-26T04:07:00.915Z,11.41
2022-10-26T04:08:00.890Z,11.29
2022-10-26T04:09:00.877Z,11.30
2022-10-26T04:10:00.858Z,11.40
2022-10-26T04:11:03.719Z,11.33
2022-10-26T04:12:00.872Z,11.30
2022-10-26T04:13:00.831Z,11.41
2022-10-26T04:14:00.818Z,11.33
2022-10-26T04:15:00.827Z,11.35
2022-10-26T04:16:00.795Z,11.43
2022-10-26T04:17:00.788Z,11.41
2022-10-26T04:18:00.785Z,11.32
2022-10-26T04:19:00.755Z,11.29
2022-10-26T04:20:00.746Z,11.43
2022-10-26T04:21:00.746Z,11.43
2022-10-26T04:22:00.751Z,11.44
2022-10-26T04:23:00.738Z,11.37
2022-10-26T04:24:00.703Z,11.43
2022-10-26T04:25:00.700Z,11.44
2022-10-26T04:26:00.683Z,11.50
2022-10-26T04:27:00.666Z,11.48
2022-10-26T04:28:00.668Z,11.44
2022-10-26T04:29:00.643Z,11.43
2022-10-26T04:30:00.638Z,11.47
2022-10-26T04:31:00.648Z,11.45
2022-10-26T04:32:00.617Z,11.41
2022-10-26T04:33:00.619Z,11.43
2022-10-26T04:34:00.606Z,11.40
2022-10-26T04:35:00.593Z,11.44
2022-10-26T04:36:00.623Z,11.47
2022-10-26T04:37:00.581Z,11.45
2022-10-26T04:38:00.563Z,11.43
2022-10-26T04:39:00.559Z,11.43
2022-10-26T04:40:00.608Z,11.40
2022-10-26T04:41:00.518Z,11.33
2022-10-26T04:42:00.509Z,11.40
2022-10-26T04:43:00.517Z,11.33
2022-10-26T04:44:00.482Z,11.35
2022-10-26T04:45:00.473Z,11.30
2022-10-26T04:46:00.461Z,11.35
2022-10-26T04:47:00.455Z,11.23
2022-10-26T04:48:00.457Z,11.25
2022-10-26T04:49:00.422Z,11.22
2022-10-26T04:50:00.427Z,11.26
2022-10-26T04:51:00.409Z,11.22
2022-10-26T04:52:00.394Z,11.18
2022-10-26T04:53:00.382Z,11.22
2022-10-26T04:54:00.370Z,11.19
2022-10-26T04:55:00.413Z,11.26
2022-10-26T04:56:00.345Z,11.23
2022-10-26T04:57:00.341Z,11.22
2022-10-26T04:58:01.520Z,11.19
2022-10-26T04:59:00.313Z,11.26
2022-10-26T05:00:00.307Z,11.19
2022-10-26T05:01:00.341Z,11.30
2022-10-26T05:02:00.478Z,11.25
2022-10-26T05:03:00.263Z,11.15
2022-10-26T05:04:00.260Z,11.22
2022-10-26T05:05:00.325Z,11.23
2022-10-26T05:06:00.266Z,11.18
2022-10-26T05:07:00.221Z,11.22
2022-10-26T05:08:00.219Z,11.30
2022-10-26T05:09:00.205Z,11.15
2022-10-26T05:10:00.193Z,11.26
2022-10-26T05:11:00.206Z,11.29
2022-10-26T05:12:00.184Z,11.27
2022-10-26T05:13:00.192Z,11.18
2022-10-26T05:14:00.152Z,11.19
2022-10-26T05:15:02.891Z,11.30
2022-10-26T05:16:01.122Z,11.32
2022-10-26T05:17:00.132Z,11.23
2022-10-26T05:18:00.105Z,11.18
2022-10-26T05:19:00.089Z,11.30
2022-10-26T05:20:00.086Z,11.30
2022-10-26T05:21:00.080Z,11.23
2022-10-26T05:22:00.096Z,11.17
2022-10-26T05:23:00.048Z,11.25
2022-10-26T05:24:00.038Z,11.22
2022-10-26T05:25:00.023Z,11.26
2022-10-26T05:26:00.015Z,11.22
2022-10-26T05:27:00.026Z,11.23
2022-10-26T05:28:00.007Z,11.19
2022-10-26T05:28:59.975Z,11.29
2022-10-26T05:30:00.014Z,11.36
2022-10-26T05:30:59.969Z,11.41
2022-10-26T05:31:59.959Z,11.27
2022-10-26T05:32:59.935Z,11.35
2022-10-26T05:33:59.933Z,11.32
2022-10-26T05:34:59.908Z,11.32
2022-10-26T05:35:59.900Z,11.32
2022-10-26T05:36:59.921Z,11.36
2022-10-26T05:37:59.894Z,11.41
2022-10-26T05:38:59.874Z,11.40
2022-10-26T05:39:59.862Z,11.32
2022-10-26T05:40:59.857Z,11.44
2022-10-26T05:41:59.844Z,11.30
2022-10-26T05:42:59.840Z,11.40
2022-10-26T05:43:59.820Z,11.36
2022-10-26T05:44:59.813Z,11.40
2022-10-26T05:45:59.791Z,11.41
2022-10-26T05:46:59.789Z,11.45
2022-10-26T05:48:02.569Z,11.47
2022-10-26T05:48:59.774Z,11.41
2022-10-26T05:49:59.748Z,11.37
2022-10-26T05:50:59.742Z,11.41
2022-10-26T05:51:59.746Z,11.45
2022-10-26T05:52:59.712Z,11.47
2022-10-26T05:53:59.696Z,11.45
2022-10-26T05:54:59.714Z,11.51
2022-10-26T05:55:59.686Z,11.51
2022-10-26T05:56:59.693Z,11.43
2022-10-26T05:57:59.672Z,11.52
2022-10-26T05:58:59.659Z,11.48
2022-10-26T05:59:59.629Z,11.51
2022-10-26T06:00:59.620Z,11.51
2022-10-26T06:01:59.748Z,11.50
2022-10-26T06:02:59.614Z,11.55
2022-10-26T06:03:59.594Z,11.60
2022-10-26T06:04:59.580Z,11.52
2022-10-26T06:06:01.636Z,11.55
2022-10-26T06:06:59.563Z,11.51
2022-10-26T06:07:59.554Z,11.52
2022-10-26T06:08:59.535Z,11.59
2022-10-26T06:09:59.522Z,11.59
2022-10-26T06:10:59.525Z,11.51
2022-10-26T06:11:59.503Z,11.52
2022-10-26T06:12:59.500Z,11.54
2022-10-26T06:13:59.473Z,11.59
2022-10-26T06:14:59.484Z,11.54
2022-10-26T06:15:59.448Z,11.57
2022-10-26T06:16:59.444Z,11.62
2022-10-26T06:17:59.432Z,11.66
2022-10-26T06:19:01.762Z,11.59
2022-10-26T06:19:59.424Z,11.63
2022-10-26T06:20:59.401Z,11.72
2022-10-26T06:21:59.383Z,11.63
2022-10-26T06:22:59.386Z,11.72
2022-10-26T06:23:59.376Z,11.72
2022-10-26T06:24:59.356Z,11.75
2022-10-26T06:26:03.433Z,11.80
2022-10-26T06:26:59.331Z,11.77
2022-10-26T06:27:59.316Z,11.80
2022-10-26T06:28:59.313Z,11.72
2022-10-26T06:29:59.328Z,11.69
2022-10-26T06:30:59.315Z,11.69
2022-10-26T06:31:59.270Z,11.75
2022-10-26T06:33:05.866Z,11.75
2022-10-26T06:34:00.254Z,11.72
2022-10-26T06:35:01.727Z,11.83
2022-10-26T06:35:59.229Z,11.77
2022-10-26T06:36:59.230Z,11.80
2022-10-26T06:37:59.201Z,11.77
2022-10-26T06:38:59.192Z,11.80
2022-10-26T06:39:59.188Z,11.84
2022-10-26T06:40:59.180Z,11.83
2022-10-26T06:41:59.187Z,11.95
2022-10-26T06:42:59.151Z,11.84
2022-10-26T06:43:59.136Z,11.81
2022-10-26T06:44:59.136Z,11.87
2022-10-26T06:45:59.113Z,11.84
2022-10-26T06:46:59.132Z,11.80
2022-10-26T06:47:59.105Z,11.88
2022-10-26T06:48:59.081Z,11.87
2022-10-26T06:49:59.072Z,11.87
2022-10-26T06:50:59.068Z,11.88
2022-10-26T06:51:59.045Z,11.81
2022-10-26T06:52:59.039Z,11.84
2022-10-26T06:53:59.038Z,11.86
2022-10-26T06:54:59.021Z,11.88
2022-10-26T06:55:59.020Z,11.87
2022-10-26T06:56:58.995Z,11.84
2022-10-26T06:57:58.981Z,11.80
2022-10-26T06:59:02.259Z,11.86
2022-10-26T06:59:59.962Z,11.95
2022-10-26T07:00:58.954Z,11.95
2022-10-26T07:02:01.725Z,11.94
2022-10-26T07:03:00.018Z,11.97
2022-10-26T07:03:58.917Z,11.99
2022-10-26T07:04:58.909Z,12.06
2022-10-26T07:05:58.894Z,12.02
2022-10-26T07:06:58.903Z,11.97
2022-10-26T07:07:58.898Z,11.99
2022-10-26T07:08:58.858Z,11.99
2022-10-26T07:09:58.846Z,12.02
2022-10-26T07:10:58.846Z,12.04
2022-10-26T07:11:58.825Z,12.07
2022-10-26T07:12:58.824Z,12.06
2022-10-26T07:13:58.815Z,12.10
2022-10-26T07:14:58.897Z,12.09
2022-10-26T07:15:58.789Z,12.00
2022-10-26T07:16:58.770Z,12.10
2022-10-26T07:17:58.763Z,12.06
2022-10-26T07:18:58.767Z,12.07
2022-10-26T07:19:58.733Z,12.02
2022-10-26T07:20:58.727Z,12.00
2022-10-26T07:21:58.715Z,12.04
2022-10-26T07:22:58.706Z,12.04
2022-10-26T07:23:58.735Z,12.09
2022-10-26T07:25:02.074Z,12.09
2022-10-26T07:25:58.670Z,12.03
2022-10-26T07:26:58.687Z,12.09
2022-10-26T07:27:58.671Z,12.09
2022-10-26T07:28:58.647Z,12.12
2022-10-26T07:29:58.631Z,12.10
2022-10-26T07:30:58.624Z,12.04
2022-10-26T07:31:58.611Z,12.13
2022-10-26T07:32:58.617Z,12.21
2022-10-26T07:33:58.590Z,12.12
2022-10-26T07:34:58.608Z,12.13
2022-10-26T07:35:58.571Z,12.09
2022-10-26T07:36:58.562Z,12.17
2022-10-26T07:37:58.538Z,12.10
2022-10-26T07:38:58.531Z,12.09
2022-10-26T07:40:01.413Z,12.20
2022-10-26T07:40:59.511Z,12.21
2022-10-26T07:41:58.497Z,12.13
2022-10-26T07:42:58.483Z,12.20
2022-10-26T07:43:58.471Z,12.24
2022-10-26T07:44:58.464Z,12.17
2022-10-26T07:45:58.451Z,12.32
2022-10-26T07:46:58.437Z,12.15
2022-10-26T07:47:58.452Z,12.18
2022-10-26T07:48:58.422Z,12.31
2022-10-26T07:49:58.400Z,12.32
2022-10-26T07:50:58.440Z,12.31
2022-10-26T07:51:58.379Z,12.37
2022-10-26T07:52:58.373Z,12.42
2022-10-26T07:53:58.364Z,12.40
2022-10-26T07:54:58.346Z,12.42
2022-10-26T07:55:58.340Z,12.45
2022-10-26T07:56:58.386Z,12.43
2022-10-26T07:57:58.625Z,12.47
2022-10-26T07:58:58.320Z,12.47
2022-10-26T07:59:58.301Z,12.49
2022-10-26T08:00:58.343Z,12.60
2022-10-26T08:01:58.331Z,12.61
2022-10-26T08:02:58.256Z,12.65
2022-10-26T08:03:58.242Z,12.65
2022-10-26T08:04:58.243Z,12.68
2022-10-26T08:05:58.239Z,12.72
2022-10-26T08:06:58.231Z,12.67
2022-10-26T08:07:58.209Z,12.68
2022-10-26T08:08:58.188Z,12.83
2022-10-26T08:09:58.174Z,12.86
2022-10-26T08:10:58.177Z,12.95
2022-10-26T08:11:58.152Z,13.30
2022-10-26T08:12:58.156Z,13.56
2022-10-26T08:13:58.133Z,13.77
2022-10-26T08:14:58.132Z,14.10
2022-10-26T08:15:58.117Z,14.08
2022-10-26T08:16:58.101Z,14.17
2022-10-26T08:17:58.095Z,14.00
2022-10-26T08:18:58.095Z,14.07
2022-10-26T08:19:58.064Z,13.99
2022-10-26T08:21:05.112Z,13.95
2022-10-26T08:21:59.041Z,13.89
2022-10-26T08:22:58.057Z,13.77
2022-10-26T08:23:58.030Z,13.81
2022-10-26T08:24:58.015Z,13.79
2022-10-26T08:25:58.004Z,13.78
2022-10-26T08:26:58.010Z,13.79
2022-10-26T08:27:57.988Z,13.81
2022-10-26T08:28:57.967Z,13.86
2022-10-26T08:29:57.956Z,13.95
2022-10-26T08:30:57.947Z,13.75
2022-10-26T08:31:57.933Z,13.92
2022-10-26T08:32:57.942Z,13.86
2022-10-26T08:33:57.910Z,13.89
2022-10-26T08:34:57.900Z,13.75
2022-10-26T08:35:57.888Z,13.95
2022-10-26T08:36:57.898Z,13.81
2022-10-26T08:37:57.875Z,13.90
2022-10-26T08:38:57.878Z,13.89
2022-10-26T08:40:00.616Z,13.89
2022-10-26T08:40:58.834Z,13.85
2022-10-26T08:41:57.836Z,13.86
2022-10-26T08:42:57.836Z,13.79
2022-10-26T08:43:57.800Z,13.89
2022-10-26T08:44:57.789Z,13.90
2022-10-26T08:45:57.776Z,13.92
2022-10-26T08:46:57.812Z,13.85
2022-10-26T08:47:57.754Z,13.83
2022-10-26T08:48:57.757Z,13.77
2022-10-26T08:49:57.774Z,13.79
2022-10-26T08:50:57.725Z,13.77
2022-10-26T08:51:57.709Z,13.74
2022-10-26T08:52:57.712Z,13.74
2022-10-26T08:53:57.745Z,13.79
2022-10-26T08:54:57.702Z,13.79
2022-10-26T08:55:57.666Z,13.77
2022-10-26T08:56:57.659Z,13.77
2022-10-26T08:57:57.652Z,13.97
2022-10-26T08:58:57.667Z,13.90
2022-10-26T08:59:57.656Z,13.89
2022-10-26T09:00:57.660Z,14.17
2022-10-26T09:01:57.687Z,14.36
2022-10-26T09:02:57.591Z,14.47
2022-10-26T09:03:57.625Z,14.65
2022-10-26T09:04:57.569Z,14.79
2022-10-26T09:05:57.573Z,14.91
2022-10-26T09:06:57.591Z,15.02
2022-10-26T09:07:57.567Z,15.03
2022-10-26T09:08:57.528Z,15.28
2022-10-26T09:09:57.567Z,15.42
2022-10-26T09:10:57.528Z,15.52
2022-10-26T09:11:57.499Z,15.64
2022-10-26T09:12:57.484Z,15.79
2022-10-26T09:13:59.019Z,15.90
2022-10-26T09:14:57.458Z,16.00
2022-10-26T09:15:57.457Z,16.10
2022-10-26T09:16:57.437Z,16.23
2022-10-26T09:17:57.421Z,16.35
2022-10-26T09:18:59.042Z,16.43
2022-10-26T09:19:58.406Z,16.50
2022-10-26T09:20:57.491Z,16.42
2022-10-26T09:21:57.377Z,16.53
2022-10-26T09:22:57.381Z,16.69
2022-10-26T09:23:57.354Z,16.81
2022-10-26T09:24:57.345Z,16.89
2022-10-26T09:25:57.347Z,16.91
2022-10-26T09:26:57.391Z,16.91
2022-10-26T09:27:57.330Z,17.06
2022-10-26T09:28:57.300Z,17.11
2022-10-26T09:29:57.296Z,17.29
2022-10-26T09:30:57.288Z,17.34
2022-10-26T09:31:57.269Z,17.33
2022-10-26T09:32:57.298Z,17.51
2022-10-26T09:33:57.244Z,17.64
2022-10-26T09:34:57.236Z,17.72
2022-10-26T09:35:57.220Z,17.82
2022-10-26T09:36:57.266Z,17.79
2022-10-26T09:37:57.196Z,17.92
2022-10-26T09:38:57.188Z,17.98
2022-10-26T09:39:57.181Z,18.15
2022-10-26T09:40:57.176Z,18.19
2022-10-26T09:41:57.161Z,18.33
2022-10-26T09:42:57.180Z,18.33
2022-10-26T09:43:57.132Z,18.33
2022-10-26T09:44:57.130Z,18.35
2022-10-26T09:45:57.107Z,18.40
2022-10-26T09:46:57.107Z,18.44
2022-10-26T09:47:57.091Z,18.44
2022-10-26T09:48:57.109Z,18.40
2022-10-26T09:49:57.063Z,18.59
2022-10-26T09:51:01.898Z,18.58
2022-10-26T09:51:58.083Z,18.56
2022-10-26T09:52:57.049Z,18.59
2022-10-26T09:53:57.022Z,18.65
2022-10-26T09:54:57.035Z,18.58
2022-10-26T09:55:56.994Z,18.63
2022-10-26T09:56:56.999Z,18.58
2022-10-26T09:57:56.984Z,18.52
2022-10-26T09:58:56.987Z,18.47
2022-10-26T09:59:56.949Z,18.41
2022-10-26T10:00:56.944Z,18.47
2022-10-26T10:01:56.997Z,18.35
2022-10-26T10:02:56.980Z,18.52
2022-10-26T10:03:56.905Z,18.53
2022-10-26T10:04:56.895Z,18.50
2022-10-26T10:05:56.890Z,18.45
2022-10-26T10:06:56.886Z,18.43
2022-10-26T10:07:56.866Z,18.41
2022-10-26T10:09:56.839Z,18.34
2022-10-26T10:10:56.838Z,18.29
2022-10-26T10:11:56.845Z,18.20
2022-10-26T10:12:56.820Z,18.20
2022-10-26T10:13:56.793Z,18.18
2022-10-26T10:14:56.836Z,18.15
2022-10-26T10:15:56.857Z,18.11
2022-10-26T10:16:56.768Z,18.08
2022-10-26T10:17:56.959Z,18.05
2022-10-26T10:18:56.737Z,17.92
2022-10-26T10:19:56.732Z,17.89
2022-10-26T10:20:56.713Z,17.89
2022-10-26T10:21:56.714Z,17.85
2022-10-26T10:22:56.696Z,17.85
2022-10-26T10:23:56.699Z,17.80
2022-10-26T10:24:56.667Z,17.80
2022-10-26T10:25:56.740Z,17.82
2022-10-26T10:26:56.648Z,17.82
2022-10-26T10:27:56.646Z,17.85
2022-10-26T10:28:56.646Z,17.98
2022-10-26T10:29:59.947Z,17.95
2022-10-26T10:30:57.623Z,18.05
2022-10-26T10:31:56.592Z,18.11
2022-10-26T10:32:56.598Z,18.11
2022-10-26T10:33:56.574Z,18.11
2022-10-26T10:34:56.557Z,18.11
2022-10-26T10:35:56.616Z,18.08
2022-10-26T10:36:56.535Z,18.01
2022-10-26T10:37:56.533Z,18.00
2022-10-26T10:38:56.521Z,18.01
2022-10-26T10:39:56.503Z,18.04
2022-10-26T10:40:56.489Z,18.05
2022-10-26T10:41:56.482Z,18.11
2022-10-26T10:42:56.476Z,18.20
2022-10-26T10:43:56.458Z,18.31
2022-10-26T10:44:56.454Z,18.43
2022-10-26T10:45:59.461Z,18.53
2022-10-26T10:46:56.444Z,18.70
2022-10-26T10:47:56.424Z,18.80
2022-10-26T10:48:56.404Z,18.90
2022-10-26T10:49:56.413Z,19.04
2022-10-26T10:50:56.377Z,19.08
2022-10-26T10:51:56.369Z,19.15
2022-10-26T10:52:56.364Z,19.33
2022-10-26T10:53:56.350Z,19.33
2022-10-26T10:54:56.363Z,19.27
2022-10-26T10:55:56.458Z,19.31
2022-10-26T10:56:56.315Z,19.34
2022-10-26T10:57:56.312Z,19.36
2022-10-26T10:58:56.298Z,19.47
2022-10-26T10:59:56.320Z,19.48
2022-10-26T11:00:56.265Z,19.55
2022-10-26T11:01:56.369Z,19.49
2022-10-26T11:02:56.275Z,19.54
2022-10-26T11:03:56.234Z,19.56
2022-10-26T11:04:56.235Z,19.51
2022-10-26T11:05:56.223Z,19.66
2022-10-26T11:06:56.200Z,19.69
2022-10-26T11:07:56.190Z,19.58
2022-10-26T11:08:56.177Z,19.69
2022-10-26T11:09:56.188Z,19.69
2022-10-26T11:10:56.174Z,19.59
2022-10-26T11:11:56.151Z,19.59
2022-10-26T11:12:56.134Z,19.56
2022-10-26T11:13:56.125Z,19.52
2022-10-26T11:14:56.111Z,19.59
2022-10-26T11:15:56.110Z,19.58
2022-10-26T11:16:56.096Z,19.55
2022-10-26T11:17:56.085Z,19.63
2022-10-26T11:18:56.088Z,19.58
2022-10-26T11:19:56.079Z,19.67
2022-10-26T11:20:56.077Z,19.73
2022-10-26T11:21:56.036Z,19.76
2022-10-26T11:22:56.075Z,19.82
2022-10-26T11:23:56.015Z,19.89
2022-10-26T11:24:56.006Z,19.92
2022-10-26T11:25:56.002Z,19.92
2022-10-26T11:26:55.996Z,20.00
2022-10-26T11:27:55.978Z,20.07
2022-10-26T11:28:55.955Z,20.16
2022-10-26T11:29:55.946Z,20.16
2022-10-26T11:30:55.939Z,20.18
2022-10-26T11:36:39.300Z,20.03
2022-10-26T11:37:32.984Z,20.03
2022-10-26T11:38:45.427Z,20.06
2022-10-26T11:39:33.937Z,20.10
2022-10-26T11:40:32.892Z,20.19
2022-10-26T11:41:32.887Z,20.19
2022-10-26T11:42:32.918Z,20.26
2022-10-26T11:43:32.861Z,20.25
2022-10-26T11:44:32.849Z,20.34
2022-10-26T11:45:32.847Z,20.31
2022-10-26T11:46:32.846Z,20.24
2022-10-26T11:47:32.823Z,20.31
2022-10-26T11:48:32.812Z,20.28
2022-10-26T11:49:32.794Z,20.16
2022-10-26T11:50:32.787Z,20.28
2022-10-26T11:51:32.776Z,20.18
2022-10-26T11:52:32.807Z,20.13
2022-10-26T11:53:32.762Z,20.04
2022-10-26T11:54:32.742Z,20.07
2022-10-26T11:55:32.733Z,20.11
2022-10-26T11:56:32.724Z,20.18
2022-10-26T11:57:32.710Z,20.11
2022-10-26T11:58:32.753Z,20.06
2022-10-26T11:59:33.608Z,20.13
2022-10-26T12:00:32.673Z,20.04
2022-10-26T12:01:32.689Z,20.09
2022-10-26T12:02:32.711Z,20.24
2022-10-26T12:03:32.647Z,20.16
2022-10-26T12:04:32.662Z,20.16
2022-10-26T12:05:32.624Z,20.19
2022-10-26T12:06:32.607Z,20.22
2022-10-26T12:07:32.597Z,20.18
2022-10-26T12:08:32.604Z,20.22
2022-10-26T12:09:35.535Z,20.24
2022-10-26T12:10:32.585Z,20.18
2022-10-26T12:11:32.554Z,20.18
2022-10-26T12:12:35.049Z,20.24
2022-10-26T12:13:32.585Z,20.16
2022-10-26T12:14:32.524Z,20.22
2022-10-26T12:15:40.295Z,20.24
2022-10-26T12:16:33.510Z,20.14
2022-10-26T12:17:32.484Z,20.16
2022-10-26T12:18:53.983Z,20.11
2022-10-26T12:19:33.475Z,20.19
2022-10-26T12:20:32.461Z,20.22
2022-10-26T12:21:32.441Z,20.18
2022-10-26T12:22:32.457Z,20.32
2022-10-26T12:23:40.351Z,20.40
2022-10-26T12:24:33.435Z,20.44
2022-10-26T12:25:32.397Z,20.37
2022-10-26T12:26:32.392Z,20.44
2022-10-26T12:27:32.375Z,20.40
2022-10-26T12:28:32.383Z,20.39
2022-10-26T12:29:32.366Z,20.40
2022-10-26T12:30:32.353Z,20.44
2022-10-26T12:31:32.469Z,20.47
2022-10-26T12:32:32.343Z,20.48
2022-10-26T12:33:32.309Z,20.43
2022-10-26T12:34:32.314Z,20.36
2022-10-26T12:35:32.288Z,20.31
2022-10-26T12:36:32.282Z,20.21
2022-10-26T12:37:32.265Z,20.25
2022-10-26T12:38:33.804Z,20.24
2022-10-26T12:39:32.255Z,20.21
2022-10-26T12:40:32.255Z,20.24
2022-10-26T12:41:32.220Z,20.22
2022-10-26T12:42:32.211Z,20.07
2022-10-26T12:43:32.279Z,20.07
2022-10-26T12:44:32.234Z,20.10
2022-10-26T12:45:32.182Z,20.02
2022-10-26T12:46:32.176Z,19.89
2022-10-26T12:47:32.155Z,19.95
2022-10-26T12:48:39.388Z,19.84
2022-10-26T12:49:33.130Z,19.82
2022-10-26T12:50:32.130Z,19.85
2022-10-26T12:51:34.131Z,19.74
2022-10-26T12:52:32.103Z,19.81
2022-10-26T12:53:32.088Z,19.76
2022-10-26T12:54:32.091Z,19.81
2022-10-26T12:55:32.075Z,19.85
2022-10-26T12:56:32.079Z,19.76
2022-10-26T12:57:32.046Z,19.76
2022-10-26T12:58:32.043Z,19.84